createdAt,value
2018-07-05T00:00:29.129Z,0.80
2018-07-05T00:03:09.288Z,0.90
2018-07-05T00:05:49.243Z,0.80
2018-07-05T00:08:29.455Z,0.67
2018-07-05T00:11:09.388Z,0.83
2018-07-05T00:13:50.001Z,0.70
2018-07-05T00:16:29.982Z,0.90
2018-07-05T00:19:10.124Z,0.80
2018-07-05T00:21:49.989Z,0.67
2018-07-05T00:24:29.833Z,0.70
2018-07-05T00:27:09.713Z,0.63
2018-07-05T00:29:49.672Z,0.80
2018-07-05T00:32:30.165Z,0.60
2018-07-05T00:35:10.489Z,0.77
2018-07-05T00:37:50.466Z,0.80
2018-07-05T00:40:30.373Z,0.80
2018-07-05T00:43:10.224Z,0.63
2018-07-05T00:45:50.514Z,0.60
2018-07-05T00:48:30.732Z,0.90
2018-07-05T00:51:11.300Z,0.77
2018-07-05T00:53:51.516Z,0.90
2018-07-05T00:56:31.399Z,0.60
2018-07-05T00:59:11.743Z,0.90
2018-07-05T01:01:51.524Z,0.67
2018-07-05T01:04:25.683Z,1.00
2018-07-05T01:07:05.883Z,0.50
2018-07-05T01:09:46.013Z,0.73
2018-07-05T01:12:26.077Z,0.80
2018-07-05T01:15:06.133Z,0.70
2018-07-05T01:17:46.108Z,0.87
2018-07-05T01:20:26.067Z,0.80
2018-07-05T01:23:06.180Z,0.67
2018-07-05T01:25:46.188Z,0.60
2018-07-05T01:28:26.660Z,0.67
2018-07-05T01:31:06.528Z,0.60
2018-07-05T01:33:46.702Z,0.70
2018-07-05T01:36:26.713Z,0.50
2018-07-05T01:39:07.049Z,0.50
2018-07-05T01:41:46.803Z,0.60
2018-07-05T01:44:27.026Z,0.80
2018-07-05T01:47:07.198Z,0.80
2018-07-05T01:49:47.427Z,0.70
2018-07-05T01:52:27.234Z,0.93
2018-07-05T01:55:07.100Z,0.70
2018-07-05T01:57:46.812Z,0.73
2018-07-05T02:00:26.725Z,0.50
2018-07-05T02:03:06.402Z,0.60
2018-07-05T02:05:46.414Z,0.80
2018-07-05T02:08:26.199Z,0.70
2018-07-05T02:11:06.005Z,0.43
2018-07-05T02:13:45.895Z,0.60
2018-07-05T02:16:25.828Z,0.70
2018-07-05T02:19:05.474Z,0.70
2018-07-05T02:21:45.091Z,0.80
2018-07-05T02:24:24.757Z,0.90
2018-07-05T02:27:04.772Z,0.70
2018-07-05T02:29:44.562Z,0.93
2018-07-05T02:32:24.176Z,0.80
2018-07-05T02:35:03.940Z,0.70
2018-07-05T02:37:49.269Z,0.53
2018-07-05T02:40:28.927Z,0.80
2018-07-05T02:43:08.775Z,0.50
2018-07-05T02:45:42.632Z,0.80
2018-07-05T02:48:22.449Z,0.60
2018-07-05T02:51:02.325Z,0.70
2018-07-05T02:53:42.205Z,0.50
2018-07-05T02:56:21.742Z,0.80
2018-07-05T02:59:01.561Z,0.93
2018-07-05T03:01:41.326Z,0.60
2018-07-05T03:04:21.441Z,0.50
2018-07-05T03:07:01.487Z,0.70
2018-07-05T03:09:41.392Z,0.60
2018-07-05T03:12:21.184Z,0.70
2018-07-05T03:15:01.083Z,0.70
2018-07-05T03:17:40.819Z,0.60
2018-07-05T03:20:20.457Z,0.60
2018-07-05T03:23:00.469Z,0.70
2018-07-05T03:25:40.124Z,0.80
2018-07-05T03:28:13.838Z,0.80
2018-07-05T03:30:53.641Z,0.80
2018-07-05T03:33:33.317Z,0.70
2018-07-05T03:36:13.039Z,0.60
2018-07-05T03:38:52.588Z,0.70
2018-07-05T03:41:32.389Z,0.67
2018-07-05T03:44:12.268Z,0.83
2018-07-05T03:46:46.142Z,0.80
2018-07-05T03:49:20.007Z,0.50
2018-07-05T03:51:59.974Z,0.93
2018-07-05T03:54:39.870Z,0.60
2018-07-05T03:57:19.593Z,0.60
2018-07-05T03:59:53.424Z,0.97
2018-07-05T04:02:33.246Z,0.70
2018-07-05T04:05:13.289Z,0.87
2018-07-05T04:07:52.966Z,0.60
2018-07-05T04:10:33.143Z,0.90
2018-07-05T04:13:13.438Z,0.63
2018-07-05T04:15:53.527Z,0.87
2018-07-05T04:18:33.775Z,0.77
2018-07-05T04:21:14.277Z,0.70
2018-07-05T04:23:54.333Z,0.80
2018-07-05T04:26:34.202Z,0.93
2018-07-05T04:29:15.250Z,0.60
2018-07-05T04:31:55.219Z,0.80
2018-07-05T04:34:35.206Z,0.80
2018-07-05T04:37:15.603Z,0.77
2018-07-05T04:39:55.979Z,0.70
2018-07-05T04:42:36.126Z,0.40
2018-07-05T04:45:17.240Z,0.70
2018-07-05T04:47:57.795Z,0.70
2018-07-05T04:50:37.676Z,0.53
2018-07-05T04:53:17.738Z,0.60
2018-07-05T04:55:57.868Z,0.63
2018-07-05T04:58:32.147Z,1.10
2018-07-05T05:01:12.484Z,0.50
2018-07-05T05:03:52.467Z,0.90
2018-07-05T05:06:32.212Z,0.90
2018-07-05T05:09:12.883Z,0.90
2018-07-05T05:11:52.951Z,0.70
2018-07-05T05:14:33.002Z,0.60
2018-07-05T05:17:13.242Z,0.70
2018-07-05T05:19:53.190Z,0.90
2018-07-05T05:22:33.065Z,0.90
2018-07-05T05:25:13.158Z,0.70
2018-07-05T05:27:53.049Z,0.70
2018-07-05T05:30:33.018Z,0.67
2018-07-05T05:33:14.171Z,0.83
2018-07-05T05:35:54.276Z,0.70
2018-07-05T05:38:34.174Z,0.70
2018-07-05T05:41:14.202Z,0.80
2018-07-05T05:43:54.014Z,0.60
2018-07-05T05:46:33.740Z,0.80
2018-07-05T05:49:14.181Z,0.70
2018-07-05T05:51:53.906Z,0.87
2018-07-05T05:54:33.705Z,0.70
2018-07-05T05:57:13.213Z,0.80
2018-07-05T05:59:53.101Z,0.80
2018-07-05T06:02:32.908Z,0.67
2018-07-05T06:05:12.828Z,0.80
2018-07-05T06:07:52.644Z,0.70
2018-07-05T06:10:32.365Z,0.80
2018-07-05T06:13:12.033Z,0.53
2018-07-05T06:15:51.691Z,0.70
2018-07-05T06:18:31.537Z,0.70
2018-07-05T06:21:11.201Z,0.70
2018-07-05T06:23:51.013Z,0.60
2018-07-05T06:26:30.687Z,1.00
2018-07-05T06:29:10.414Z,0.73
2018-07-05T06:31:50.231Z,0.90
2018-07-05T06:34:23.859Z,0.80
2018-07-05T06:37:03.703Z,0.80
2018-07-05T06:39:43.670Z,0.90
2018-07-05T06:42:23.308Z,0.83
2018-07-05T06:45:03.096Z,0.70
2018-07-05T06:47:42.859Z,0.83
2018-07-05T06:50:22.592Z,1.00
2018-07-05T06:53:02.343Z,0.70
2018-07-05T06:55:42.092Z,0.83
2018-07-05T06:58:21.818Z,0.90
2018-07-05T07:01:01.634Z,0.70
2018-07-05T07:03:41.450Z,0.63
2018-07-05T07:06:21.164Z,0.90
2018-07-05T07:09:00.916Z,0.70
2018-07-05T07:11:40.640Z,0.70
2018-07-05T07:14:20.282Z,0.83
2018-07-05T07:17:00.043Z,0.73
2018-07-05T07:19:39.731Z,0.67
2018-07-05T07:22:19.340Z,0.70
2018-07-05T07:24:59.246Z,0.90
2018-07-05T07:27:39.018Z,0.87
2018-07-05T07:30:12.909Z,0.67
2018-07-05T07:32:52.714Z,0.80
2018-07-05T07:35:32.484Z,1.03
2018-07-05T07:38:12.490Z,0.50
2018-07-05T07:40:52.391Z,0.77
2018-07-05T07:43:19.857Z,0.90
2018-07-05T07:45:47.276Z,0.80
2018-07-05T07:48:14.703Z,0.80
2018-07-05T07:50:42.077Z,0.80
2018-07-05T07:53:09.413Z,0.88
2018-07-05T07:55:36.914Z,0.87
2018-07-05T07:58:04.285Z,0.90
2018-07-05T08:00:31.889Z,0.90
2018-07-05T08:02:59.252Z,1.00
2018-07-05T08:05:26.671Z,0.80
2018-07-05T08:07:54.053Z,0.80
2018-07-05T08:10:21.516Z,0.83
2018-07-05T08:12:49.670Z,1.00
2018-07-05T08:15:17.076Z,0.70
2018-07-05T08:17:44.529Z,1.00
2018-07-05T08:20:11.846Z,0.60
2018-07-05T08:22:39.222Z,0.80
2018-07-05T08:25:06.562Z,0.88
2018-07-05T08:27:34.078Z,1.03
2018-07-05T08:30:01.412Z,0.70
2018-07-05T08:32:28.765Z,0.90
2018-07-05T08:34:56.095Z,0.93
2018-07-05T08:37:23.484Z,0.90
2018-07-05T08:39:51.031Z,0.80
2018-07-05T08:42:18.510Z,1.00
2018-07-05T08:44:45.866Z,0.70
2018-07-05T08:47:13.226Z,0.97
2018-07-05T08:49:40.570Z,1.00
2018-07-05T08:52:07.948Z,0.97
2018-07-05T08:54:35.321Z,0.70
2018-07-05T08:57:02.662Z,0.80
2018-07-05T08:59:30.011Z,0.93
2018-07-05T09:01:57.380Z,0.90
2018-07-05T09:04:24.733Z,0.87
2018-07-05T09:06:52.067Z,0.95
2018-07-05T09:09:19.444Z,0.80
2018-07-05T09:11:47.022Z,1.00
2018-07-05T09:14:14.413Z,0.68
2018-07-05T09:16:41.779Z,0.90
2018-07-05T09:19:09.200Z,0.93
2018-07-05T09:21:36.536Z,0.85
2018-07-05T09:24:03.867Z,1.07
2018-07-05T09:26:31.678Z,0.80
2018-07-05T09:28:59.060Z,0.80
2018-07-05T09:31:26.381Z,1.00
2018-07-05T09:33:53.878Z,1.07
2018-07-05T09:36:21.494Z,0.90
2018-07-05T09:38:48.998Z,0.90
2018-07-05T09:41:16.339Z,0.77
2018-07-05T09:43:43.734Z,0.90
2018-07-05T09:46:11.090Z,0.90
2018-07-05T09:48:38.533Z,0.72
2018-07-05T09:51:05.919Z,0.63
2018-07-05T09:53:33.233Z,0.90
2018-07-05T09:56:00.725Z,0.88
2018-07-05T09:58:28.036Z,1.10
2018-07-05T10:00:55.380Z,0.98
2018-07-05T10:03:23.347Z,0.83
2018-07-05T10:05:50.718Z,0.90
2018-07-05T10:08:18.997Z,0.82
2018-07-05T10:10:46.357Z,0.93
2018-07-05T10:13:13.908Z,0.70
2018-07-05T10:15:41.265Z,1.00
2018-07-05T10:18:08.656Z,1.03
2018-07-05T10:20:36.029Z,1.07
2018-07-05T10:23:03.400Z,0.83
2018-07-05T10:25:30.773Z,0.73
2018-07-05T10:27:58.122Z,1.00
2018-07-05T10:30:37.942Z,0.67
2018-07-05T10:33:17.868Z,0.60
2018-07-05T10:35:45.182Z,1.00
2018-07-05T10:38:12.564Z,0.77
2018-07-05T10:40:52.525Z,0.97
2018-07-05T10:43:32.394Z,0.90
2018-07-05T10:46:12.178Z,0.77
2018-07-05T10:48:51.948Z,0.80
2018-07-05T10:51:25.465Z,0.60
2018-07-05T10:54:05.263Z,0.80
2018-07-05T10:56:45.218Z,0.90
2018-07-05T10:59:19.113Z,0.83
2018-07-05T11:01:58.944Z,1.00
2018-07-05T11:04:38.965Z,0.80
2018-07-05T11:07:18.783Z,0.90
2018-07-05T11:09:58.464Z,0.80
2018-07-05T11:12:38.418Z,0.80
2018-07-05T11:15:12.935Z,0.80
2018-07-05T11:17:53.798Z,1.00
2018-07-05T11:20:33.569Z,1.10
2018-07-05T11:23:13.447Z,0.80
2018-07-05T11:25:53.155Z,1.13
2018-07-05T11:28:32.791Z,0.90
2018-07-05T11:31:12.662Z,0.97
2018-07-05T11:33:52.492Z,0.80
2018-07-05T11:36:32.241Z,0.60
2018-07-05T11:39:11.881Z,0.70
2018-07-05T11:41:52.177Z,0.80
2018-07-05T11:44:31.809Z,0.90
2018-07-05T11:47:11.546Z,0.80
2018-07-05T11:49:51.240Z,0.80
2018-07-05T11:52:30.944Z,0.90
2018-07-05T11:55:10.626Z,0.80
2018-07-05T11:57:50.404Z,0.90
2018-07-05T12:00:30.055Z,0.90
2018-07-05T12:03:09.848Z,0.93
2018-07-05T12:05:49.628Z,0.80
2018-07-05T12:08:29.316Z,0.80
2018-07-05T12:11:09.254Z,0.90
2018-07-05T12:13:49.118Z,0.70
2018-07-05T12:16:28.822Z,1.00
2018-07-05T12:19:08.757Z,0.90
2018-07-05T12:21:43.003Z,1.13
2018-07-05T12:24:22.850Z,1.00
2018-07-05T12:27:02.641Z,1.17
2018-07-05T12:29:36.495Z,0.93
2018-07-05T12:32:16.256Z,0.97
2018-07-05T12:34:49.927Z,1.07
2018-07-05T12:37:29.858Z,0.97
2018-07-05T12:40:09.788Z,0.90
2018-07-05T12:42:49.617Z,1.07
2018-07-05T12:45:29.349Z,0.90
2018-07-05T12:48:09.045Z,0.80
2018-07-05T12:50:48.681Z,1.10
2018-07-05T12:53:28.477Z,0.90
2018-07-05T12:56:08.285Z,1.00
2018-07-05T12:58:48.110Z,0.90
2018-07-05T13:01:28.039Z,1.03
2018-07-05T13:04:08.099Z,1.10
2018-07-05T13:06:47.963Z,0.93
2018-07-05T13:09:27.734Z,1.07
2018-07-05T13:12:07.477Z,0.90
2018-07-05T13:14:47.360Z,1.13
2018-07-05T13:17:21.162Z,1.20
2018-07-05T13:20:00.872Z,0.90
2018-07-05T13:22:40.587Z,1.07
2018-07-05T13:25:20.507Z,0.87
2018-07-05T13:28:00.233Z,1.30
2018-07-05T13:30:39.869Z,1.03
2018-07-05T13:33:19.565Z,0.80
2018-07-05T13:35:59.209Z,1.00
2018-07-05T13:38:38.931Z,0.80
2018-07-05T13:41:18.634Z,0.90
2018-07-05T13:43:59.680Z,1.20
2018-07-05T13:46:39.693Z,1.00
2018-07-05T13:49:20.270Z,1.07
2018-07-05T13:51:59.960Z,1.20
2018-07-05T13:54:39.920Z,0.90
2018-07-05T13:57:19.585Z,1.00
2018-07-05T13:59:59.564Z,1.00
2018-07-05T14:02:39.200Z,1.10
2018-07-05T14:05:18.976Z,1.30
2018-07-05T14:07:59.001Z,1.27
2018-07-05T14:10:39.847Z,1.10
2018-07-05T14:13:19.661Z,1.33
2018-07-05T14:15:59.429Z,0.93
2018-07-05T14:18:39.661Z,1.00
2018-07-05T14:21:20.075Z,1.33
2018-07-05T14:24:00.586Z,1.03
2018-07-05T14:26:40.486Z,1.10
2018-07-05T14:29:20.329Z,1.20
2018-07-05T14:32:00.095Z,0.90
2018-07-05T14:34:40.008Z,1.17
2018-07-05T14:37:19.955Z,0.93
2018-07-05T14:39:59.927Z,1.00
2018-07-05T14:42:39.653Z,1.17
2018-07-05T14:45:19.632Z,1.30
2018-07-05T14:47:59.741Z,1.00
2018-07-05T14:50:39.365Z,1.00
2018-07-05T14:53:19.002Z,1.27
2018-07-05T14:55:58.718Z,0.97
2018-07-05T14:58:38.789Z,1.40
2018-07-05T15:01:18.556Z,1.30
2018-07-05T15:03:52.325Z,1.30
2018-07-05T15:06:32.242Z,1.40
2018-07-05T15:09:12.289Z,1.40
2018-07-05T15:11:52.488Z,1.23
2018-07-05T15:14:32.245Z,1.03
2018-07-05T15:17:12.251Z,1.20
2018-07-05T15:19:52.188Z,1.10
2018-07-05T15:22:32.041Z,1.30
2018-07-05T15:25:12.062Z,1.47
2018-07-05T15:27:51.970Z,1.37
2018-07-05T15:30:33.253Z,1.30
2018-07-05T15:33:13.241Z,1.33
2018-07-05T15:35:52.954Z,1.30
2018-07-05T15:38:32.674Z,1.00
2018-07-05T15:41:12.375Z,1.30
2018-07-05T15:43:52.165Z,1.03
2018-07-05T15:46:31.949Z,1.33
2018-07-05T15:49:11.836Z,1.30
2018-07-05T15:51:51.654Z,1.20
2018-07-05T15:54:31.449Z,1.27
2018-07-05T15:57:11.196Z,1.40
2018-07-05T15:59:50.980Z,1.27
2018-07-05T16:02:30.729Z,1.47
2018-07-05T16:05:10.427Z,1.00
2018-07-05T16:07:50.246Z,1.30
2018-07-05T16:10:30.018Z,1.27
2018-07-05T16:13:10.098Z,1.37
2018-07-05T16:15:50.022Z,1.40
2018-07-05T16:18:30.548Z,1.60
2018-07-05T16:21:10.321Z,1.30
2018-07-05T16:23:50.534Z,1.30
2018-07-05T16:26:30.389Z,1.20
2018-07-05T16:29:10.359Z,1.30
2018-07-05T16:31:50.449Z,1.40
2018-07-05T16:34:30.499Z,1.37
2018-07-05T16:37:10.170Z,1.17
2018-07-05T16:39:49.917Z,1.50
2018-07-05T16:42:29.761Z,1.30
2018-07-05T16:45:09.774Z,1.47
2018-07-05T16:47:49.504Z,1.40
2018-07-05T16:50:29.372Z,1.60
2018-07-05T16:53:09.043Z,1.43
2018-07-05T16:55:48.972Z,1.60
2018-07-05T16:58:29.794Z,1.40
2018-07-05T17:01:09.485Z,1.53
2018-07-05T17:03:49.575Z,1.37
2018-07-05T17:06:29.160Z,1.50
2018-07-05T17:09:08.897Z,1.50
2018-07-05T17:11:48.716Z,1.40
2018-07-05T17:14:28.527Z,1.67
2018-07-05T17:17:02.437Z,1.40
2018-07-05T17:19:42.474Z,1.70
2018-07-05T17:22:22.288Z,1.57
2018-07-05T17:25:02.182Z,1.60
2018-07-05T17:27:42.029Z,1.47
2018-07-05T17:30:21.894Z,1.67
2018-07-05T17:33:01.541Z,1.40
2018-07-05T17:35:41.241Z,1.67
2018-07-05T17:38:20.965Z,1.70
2018-07-05T17:41:00.792Z,1.37
2018-07-05T17:43:40.445Z,1.40
2018-07-05T17:46:20.329Z,1.53
2018-07-05T17:49:00.072Z,1.53
2018-07-05T17:51:40.018Z,1.50
2018-07-05T17:54:13.908Z,1.50
2018-07-05T17:56:54.076Z,1.40
2018-07-05T17:59:33.899Z,1.37
2018-07-05T18:02:07.663Z,1.57
2018-07-05T18:04:47.449Z,1.60
2018-07-05T18:07:27.093Z,1.40
2018-07-05T18:10:00.668Z,1.47
2018-07-05T18:12:40.502Z,1.40
2018-07-05T18:15:20.771Z,1.77
2018-07-05T18:18:01.697Z,1.40
2018-07-05T18:20:41.585Z,1.60
2018-07-05T18:23:21.637Z,1.33
2018-07-05T18:26:01.475Z,1.53
2018-07-05T18:28:41.194Z,1.30
2018-07-05T18:31:20.973Z,1.60
2018-07-05T18:34:00.962Z,1.57
2018-07-05T18:36:40.593Z,1.53
2018-07-05T18:39:20.408Z,1.43
2018-07-05T18:42:00.309Z,1.47
2018-07-05T18:44:40.229Z,1.60
2018-07-05T18:47:19.898Z,1.53
2018-07-05T18:49:59.658Z,1.70
2018-07-05T18:52:39.995Z,1.60
2018-07-05T18:55:19.788Z,1.70
2018-07-05T18:57:59.517Z,1.60
2018-07-05T19:00:39.265Z,1.57
2018-07-05T19:03:12.976Z,1.50
2018-07-05T19:05:52.665Z,1.80
2018-07-05T19:08:32.672Z,1.70
2018-07-05T19:11:12.586Z,1.53
2018-07-05T19:13:52.365Z,1.80
2018-07-05T19:16:32.194Z,1.80
2018-07-05T19:19:05.890Z,1.60
2018-07-05T19:21:45.793Z,1.90
2018-07-05T19:24:25.639Z,1.80
2018-07-05T19:27:05.517Z,1.90
2018-07-05T19:29:45.194Z,1.70
2018-07-05T19:32:25.001Z,1.67
2018-07-05T19:35:04.755Z,1.97
2018-07-05T19:37:44.337Z,1.60
2018-07-05T19:40:24.066Z,1.67
2018-07-05T19:43:03.777Z,1.60
2018-07-05T19:45:43.621Z,1.80
2018-07-05T19:48:23.445Z,1.57
2018-07-05T19:51:03.277Z,1.63
2018-07-05T19:53:43.080Z,1.70
2018-07-05T19:56:22.801Z,1.70
2018-07-05T19:58:56.555Z,1.80
2018-07-05T20:01:36.337Z,1.50
2018-07-05T20:04:15.973Z,1.80
2018-07-05T20:06:55.816Z,1.70
2018-07-05T20:09:29.602Z,1.40
2018-07-05T20:12:09.647Z,1.53
2018-07-05T20:14:49.508Z,1.30
2018-07-05T20:17:29.205Z,1.80
2018-07-05T20:20:09.094Z,1.60
2018-07-05T20:22:48.985Z,1.80
2018-07-05T20:25:28.741Z,1.60
2018-07-05T20:28:08.628Z,1.60
2018-07-05T20:30:48.313Z,1.60
2018-07-05T20:33:28.066Z,1.53
2018-07-05T20:36:07.826Z,1.70
2018-07-05T20:38:41.629Z,1.50
2018-07-05T20:41:21.464Z,1.60
2018-07-05T20:44:01.201Z,1.50
2018-07-05T20:46:40.909Z,1.80
2018-07-05T20:49:20.634Z,1.47
2018-07-05T20:51:54.550Z,1.50
2018-07-05T20:54:34.421Z,2.00
2018-07-05T20:57:14.217Z,1.77
2018-07-05T20:59:53.947Z,1.60
2018-07-05T21:02:33.721Z,1.50
2018-07-05T21:05:13.456Z,1.90
2018-07-05T21:07:53.177Z,1.60
2018-07-05T21:10:32.985Z,1.67
2018-07-05T21:13:12.824Z,1.50
2018-07-05T21:15:52.625Z,1.70
2018-07-05T21:18:32.418Z,1.50
2018-07-05T21:21:12.398Z,1.63
2018-07-05T21:23:52.073Z,1.53
2018-07-05T21:26:31.714Z,1.80
2018-07-05T21:29:11.316Z,1.70
2018-07-05T21:31:51.201Z,1.50
2018-07-05T21:34:30.944Z,1.60
2018-07-05T21:37:10.585Z,1.47
2018-07-05T21:39:50.325Z,1.40
2018-07-05T21:42:30.261Z,1.57
2018-07-05T21:45:10.003Z,1.33
2018-07-05T21:47:50.066Z,1.70
2018-07-05T21:50:29.681Z,1.40
2018-07-05T21:53:09.352Z,1.60
2018-07-05T21:55:49.109Z,1.60
2018-07-05T21:58:28.837Z,1.30
2018-07-05T22:01:08.992Z,1.53
2018-07-05T22:03:48.588Z,1.50
2018-07-05T22:06:28.436Z,1.30
2018-07-05T22:09:08.193Z,1.60
2018-07-05T22:11:41.889Z,1.70
2018-07-05T22:14:21.689Z,1.60
2018-07-05T22:17:06.878Z,1.60
2018-07-05T22:19:52.081Z,1.57
2018-07-05T22:22:38.403Z,1.63
2018-07-05T22:25:23.654Z,1.60
2018-07-05T22:28:09.374Z,1.70
2018-07-05T22:30:55.077Z,1.70
2018-07-05T22:33:34.876Z,1.60
2018-07-05T22:36:14.733Z,1.40
2018-07-05T22:38:55.635Z,1.50
2018-07-05T22:41:29.448Z,1.53
2018-07-05T22:44:09.167Z,1.70
2018-07-05T22:46:48.865Z,1.60
2018-07-05T22:49:28.659Z,1.43
2018-07-05T22:52:08.449Z,1.33
2018-07-05T22:54:48.206Z,1.57
2018-07-05T22:57:27.969Z,1.40
2018-07-05T23:00:07.539Z,1.20
2018-07-05T23:02:47.335Z,1.40
2018-07-05T23:05:27.002Z,1.73
2018-07-05T23:08:06.661Z,1.60
2018-07-05T23:10:46.352Z,1.20
2018-07-05T23:13:26.096Z,1.60
2018-07-05T23:16:05.754Z,1.53
2018-07-05T23:18:45.408Z,1.37
2018-07-05T23:21:25.194Z,1.40
2018-07-05T23:24:05.037Z,1.40
2018-07-05T23:26:44.728Z,1.30
2018-07-05T23:29:24.560Z,1.40
2018-07-05T23:32:04.510Z,1.40
2018-07-05T23:34:44.332Z,1.33
2018-07-05T23:37:24.262Z,1.77
2018-07-05T23:40:04.176Z,1.60
2018-07-05T23:42:43.893Z,1.40
2018-07-05T23:45:23.660Z,1.40
2018-07-05T23:48:03.627Z,1.20
2018-07-05T23:50:43.414Z,1.40
2018-07-05T23:53:23.049Z,1.73
2018-07-05T23:56:02.734Z,1.40
2018-07-05T23:58:42.350Z,1.63
